Time;durP1;ratioP1;P1;durP2;ratioP2;P2;SDS_P1;SDS_P2;PMS_P1;PMS_P2;Temp;Humidity;BMP_temperature;BMP_pressure;BME280_temperature;BME280_humidity;BME280_pressure;Samples;Min_cycle;Max_cycle;Signal;HPM_P1;HPM_P2
2022/10/20 00:03:12;;;;;;;11.65;8.15;;;9.90;99.90;;;;;;7314119;32;20126;-59
2022/10/20 00:07:14;;;;;;;14.02;8.10;;;10.20;99.90;;;;;;7323153;32;20242;-58
2022/10/20 00:11:18;;;;;;;11.75;7.28;;;10.30;99.90;;;;;;7329499;32;20179;-58
2022/10/20 00:15:20;;;;;;;14.68;7.80;;;10.40;99.90;;;;;;7316126;32;20109;-58
2022/10/20 00:19:22;;;;;;;12.13;7.40;;;10.40;99.90;;;;;;7311250;32;20116;-60
2022/10/20 00:23:23;;;;;;;11.90;7.45;;;10.60;99.90;;;;;;7318374;32;20161;-58
2022/10/20 00:27:25;;;;;;;12.98;6.87;;;10.50;99.90;;;;;;7322181;32;20266;-59
2022/10/20 00:31:27;;;;;;;13.65;7.50;;;10.60;99.90;;;;;;7318843;32;20105;-58
2022/10/20 00:35:30;;;;;;;16.05;7.80;;;10.70;99.90;;;;;;7315863;32;20141;-59
2022/10/20 00:39:32;;;;;;;10.20;7.20;;;10.70;99.90;;;;;;7317805;32;20167;-59
2022/10/20 00:43:42;;;;;;;12.48;6.93;;;10.80;99.90;;;;;;7324702;32;20630;-58
2022/10/20 00:47:54;;;;;;;13.40;7.22;;;10.80;99.90;;;;;;7318805;32;20198;-59
2022/10/20 00:51:56;;;;;;;9.52;7.10;;;10.80;99.90;;;;;;7317857;32;20119;-59
2022/10/20 00:55:59;;;;;;;9.15;6.22;;;10.80;99.90;;;;;;7323742;32;20418;-58
2022/10/20 01:00:01;;;;;;;11.05;6.68;;;10.80;99.90;;;;;;7315651;32;20573;-59
2022/10/20 01:04:03;;;;;;;9.02;6.90;;;10.90;99.90;;;;;;7313308;32;20134;-58
2022/10/20 01:08:05;;;;;;;13.62;7.60;;;10.80;99.90;;;;;;7318733;32;20212;-59
2022/10/20 01:12:20;;;;;;;10.30;6.82;;;10.80;99.90;;;;;;7319781;32;20137;-58
2022/10/20 01:16:41;;;;;;;11.70;6.90;;;10.80;99.90;;;;;;7319254;32;20138;-60
2022/10/20 01:21:19;;;;;;;10.02;6.70;;;10.80;99.90;;;;;;7331171;32;20153;-59
2022/10/20 01:25:49;;;;;;;11.43;6.68;;;10.80;99.90;;;;;;7325684;32;20111;-59
2022/10/20 01:30:08;;;;;;;10.27;7.05;;;10.90;99.90;;;;;;7318549;32;20149;-59
2022/10/20 01:34:15;;;;;;;10.75;6.47;;;10.90;99.90;;;;;;7319069;32;20681;-59
2022/10/20 01:38:27;;;;;;;13.93;7.45;;;10.80;99.90;;;;;;7322369;32;20150;-59
2022/10/20 01:42:28;;;;;;;10.05;7.07;;;10.90;99.90;;;;;;7320312;32;20116;-59
2022/10/20 01:46:32;;;;;;;13.25;7.18;;;10.90;99.90;;;;;;7315408;32;20183;-59
2022/10/20 01:50:35;;;;;;;12.07;7.18;;;10.90;99.90;;;;;;7315370;32;20276;-59
2022/10/20 01:54:38;;;;;;;11.90;5.97;;;10.90;99.90;;;;;;7325551;32;20131;-59
2022/10/20 01:59:05;;;;;;;10.15;6.32;;;10.90;99.90;;;;;;7311404;32;20479;-59
2022/10/20 02:03:13;;;;;;;9.80;5.97;;;10.90;99.90;;;;;;7322296;32;20155;-58
2022/10/20 02:07:23;;;;;;;10.60;6.05;;;11.00;99.90;;;;;;7311321;32;20659;-60
2022/10/20 02:11:47;;;;;;;6.90;5.78;;;11.00;99.90;;;;;;7321457;32;20228;-59
2022/10/20 02:15:55;;;;;;;7.72;6.03;;;11.00;99.90;;;;;;7320713;32;20154;-59
2022/10/20 02:19:57;;;;;;;10.52;5.72;;;10.90;99.90;;;;;;7316052;32;20112;-60
2022/10/20 02:24:04;;;;;;;9.50;6.30;;;10.90;99.90;;;;;;7323149;32;20111;-59
2022/10/20 02:28:10;;;;;;;8.32;6.20;;;10.90;99.90;;;;;;7309591;32;20273;-60
2022/10/20 02:32:13;;;;;;;9.50;6.22;;;10.90;99.90;;;;;;7314575;32;20112;-58
2022/10/20 02:36:19;;;;;;;9.95;6.78;;;11.10;99.90;;;;;;7316488;32;20224;-59
2022/10/20 02:40:21;;;;;;;8.57;5.60;;;11.10;99.90;;;;;;7310142;32;20116;-59
2022/10/20 02:44:22;;;;;;;10.07;6.10;;;11.10;99.90;;;;;;7312367;32;20115;-59
2022/10/20 02:48:24;;;;;;;9.50;5.70;;;11.10;99.90;;;;;;7312709;32;20108;-59
2022/10/20 02:52:26;;;;;;;8.35;5.53;;;11.10;99.90;;;;;;7322602;32;20137;-61
2022/10/20 02:56:28;;;;;;;10.25;5.57;;;11.00;99.90;;;;;;7311487;32;20116;-58
2022/10/20 03:00:31;;;;;;;7.37;5.10;;;11.00;99.90;;;;;;7320491;32;20160;-59
2022/10/20 03:04:33;;;;;;;7.18;5.50;;;11.10;99.90;;;;;;7321363;32;20203;-59
2022/10/20 03:08:35;;;;;;;8.35;5.37;;;11.10;99.90;;;;;;7320186;32;20270;-59
2022/10/20 03:12:37;;;;;;;11.95;5.22;;;11.20;99.90;;;;;;7317573;32;20210;-60
2022/10/20 03:16:38;;;;;;;12.23;6.03;;;11.10;99.90;;;;;;7315187;32;20120;-58
2022/10/20 03:20:40;;;;;;;9.95;6.68;;;11.20;99.90;;;;;;7315332;32;20839;-58
2022/10/20 03:24:42;;;;;;;9.43;5.82;;;11.10;99.90;;;;;;7313506;32;20148;-59
2022/10/20 03:28:43;;;;;;;8.25;5.93;;;11.20;99.90;;;;;;7313947;32;20111;-60
2022/10/20 03:32:45;;;;;;;8.30;6.10;;;11.10;99.90;;;;;;7315220;32;20182;-60
2022/10/20 03:36:47;;;;;;;9.95;5.22;;;11.10;99.90;;;;;;7310529;32;22014;-59
2022/10/20 03:40:48;;;;;;;6.60;5.32;;;11.20;99.90;;;;;;7315370;32;20112;-59
2022/10/20 03:44:50;;;;;;;8.68;5.18;;;11.10;99.90;;;;;;7322195;32;20119;-58
2022/10/20 03:48:52;;;;;;;9.00;5.55;;;11.10;99.90;;;;;;7311238;32;20112;-60
2022/10/20 03:52:54;;;;;;;9.13;5.43;;;11.10;99.90;;;;;;7314167;32;20104;-59
2022/10/20 03:56:55;;;;;;;7.07;5.07;;;11.20;99.90;;;;;;7312815;32;20294;-60
2022/10/20 04:00:57;;;;;;;7.55;5.22;;;11.20;99.90;;;;;;7312121;32;20198;-61
2022/10/20 04:04:59;;;;;;;9.02;5.07;;;11.20;99.90;;;;;;7318900;32;20475;-59
2022/10/20 04:09:01;;;;;;;10.75;5.68;;;11.20;99.90;;;;;;7320838;32;20477;-60
2022/10/20 04:13:03;;;;;;;11.12;5.18;;;11.20;99.90;;;;;;7323098;32;20107;-60
2022/10/20 04:17:05;;;;;;;9.25;5.20;;;11.20;99.90;;;;;;7314071;32;20217;-60
2022/10/20 04:21:07;;;;;;;6.62;5.00;;;11.30;99.90;;;;;;7310751;32;20672;-59
2022/10/20 04:25:10;;;;;;;14.93;5.22;;;11.30;99.90;;;;;;7320297;32;20218;-59
2022/10/20 04:29:12;;;;;;;9.73;5.45;;;11.30;99.90;;;;;;7317476;32;20133;-60
2022/10/20 04:33:14;;;;;;;9.18;5.15;;;11.40;99.90;;;;;;7324424;32;20137;-59
2022/10/20 04:37:16;;;;;;;7.87;5.05;;;11.50;99.90;;;;;;7318173;32;20240;-59
2022/10/20 04:41:17;;;;;;;12.98;5.40;;;11.40;99.90;;;;;;7316053;32;20112;-59
2022/10/20 04:45:19;;;;;;;9.57;5.18;;;11.40;99.90;;;;;;7317199;32;20111;-59
2022/10/20 04:49:21;;;;;;;14.35;5.30;;;11.40;99.90;;;;;;7316116;32;20131;-61
2022/10/20 04:53:23;;;;;;;7.72;4.82;;;11.40;99.90;;;;;;7317204;32;20499;-61
2022/10/20 04:57:25;;;;;;;7.97;4.82;;;11.50;99.90;;;;;;7316871;32;20162;-63
2022/10/20 05:01:29;;;;;;;6.95;4.93;;;11.50;99.90;;;;;;7310989;32;20116;-62
2022/10/20 05:05:30;;;;;;;8.32;4.70;;;11.50;99.90;;;;;;7321391;32;20146;-60
2022/10/20 05:09:32;;;;;;;7.78;4.68;;;11.50;99.90;;;;;;7316941;32;20099;-62
2022/10/20 05:13:34;;;;;;;9.15;4.97;;;11.50;99.90;;;;;;7315591;32;20329;-59
2022/10/20 05:17:36;;;;;;;8.27;4.82;;;11.60;99.90;;;;;;7329918;32;20234;-61
2022/10/20 05:21:38;;;;;;;8.18;4.60;;;11.60;99.90;;;;;;7321939;32;20130;-60
2022/10/20 05:25:39;;;;;;;7.75;4.80;;;11.70;99.90;;;;;;7313886;32;20253;-60
2022/10/20 05:29:41;;;;;;;7.12;4.70;;;11.70;99.90;;;;;;7320877;32;20516;-63
2022/10/20 05:33:45;;;;;;;9.52;5.05;;;11.60;99.90;;;;;;7316805;32;20120;-61
2022/10/20 05:37:46;;;;;;;7.20;4.80;;;11.60;99.90;;;;;;7327964;32;20128;-61
2022/10/20 05:41:48;;;;;;;8.13;4.95;;;11.70;99.90;;;;;;7314197;32;20108;-60
2022/10/20 05:45:53;;;;;;;9.32;4.90;;;11.60;99.90;;;;;;7319679;32;20230;-59
2022/10/20 05:49:55;;;;;;;7.68;5.22;;;11.60;99.90;;;;;;7315377;32;20210;-59
2022/10/20 05:53:58;;;;;;;9.15;5.00;;;11.60;99.90;;;;;;7315034;32;20559;-61
2022/10/20 05:57:59;;;;;;;9.68;5.47;;;11.60;99.90;;;;;;7321224;32;20111;-58
2022/10/20 06:02:01;;;;;;;8.10;5.40;;;11.70;99.90;;;;;;7322608;32;20161;-59
2022/10/20 06:06:03;;;;;;;6.82;5.15;;;11.70;99.90;;;;;;7321637;32;20175;-59
2022/10/20 06:10:05;;;;;;;7.93;5.43;;;11.80;99.90;;;;;;7315708;32;20112;-63
2022/10/20 06:14:08;;;;;;;7.55;4.75;;;11.70;99.90;;;;;;7316885;32;20137;-62
2022/10/20 06:18:09;;;;;;;7.10;4.93;;;11.60;99.90;;;;;;7309231;32;20129;-60
2022/10/20 06:22:12;;;;;;;10.30;5.75;;;11.70;99.90;;;;;;7309449;32;20115;-63
2022/10/20 06:26:23;;;;;;;9.73;5.53;;;11.80;99.90;;;;;;7309591;32;20130;-61
2022/10/20 06:30:24;;;;;;;8.57;5.50;;;11.80;99.90;;;;;;7315978;32;20125;-63
2022/10/20 06:34:26;;;;;;;9.68;5.37;;;11.80;99.90;;;;;;7311137;32;20194;-63
2022/10/20 06:38:28;;;;;;;7.62;5.32;;;11.90;99.90;;;;;;7317920;32;20167;-61
2022/10/20 06:42:30;;;;;;;10.50;5.55;;;11.90;99.90;;;;;;7313845;32;20107;-63
2022/10/20 06:46:34;;;;;;;9.25;6.07;;;12.00;99.90;;;;;;7309877;32;20133;-61
2022/10/20 06:50:36;;;;;;;9.52;5.22;;;12.10;99.90;;;;;;7312759;32;20203;-63
2022/10/20 06:54:38;;;;;;;11.00;5.90;;;12.10;99.90;;;;;;7315451;32;20495;-61
2022/10/20 06:58:41;;;;;;;12.48;5.95;;;12.10;99.90;;;;;;7316815;32;20116;-61
2022/10/20 07:02:43;;;;;;;9.82;6.10;;;12.20;99.90;;;;;;7318589;32;20297;-61
2022/10/20 07:06:46;;;;;;;11.55;5.87;;;12.10;99.90;;;;;;7320216;32;20116;-62
2022/10/20 07:10:56;;;;;;;11.23;6.03;;;12.10;99.90;;;;;;7315274;32;20142;-61
2022/10/20 07:14:58;;;;;;;11.57;7.12;;;12.20;99.90;;;;;;7321311;32;20507;-62
2022/10/20 07:19:01;;;;;;;14.70;6.90;;;12.30;99.90;;;;;;7314396;32;20138;-62
2022/10/20 07:23:02;;;;;;;10.32;6.18;;;12.40;99.90;;;;;;7323074;32;20157;-62
2022/10/20 07:27:04;;;;;;;14.10;7.00;;;12.50;99.90;;;;;;7321061;32;20979;-63
2022/10/20 07:31:09;;;;;;;10.45;7.30;;;12.50;99.90;;;;;;7316912;32;20319;-62
2022/10/20 07:35:11;;;;;;;9.02;6.87;;;12.50;99.90;;;;;;7316758;32;20133;-61
2022/10/20 07:39:13;;;;;;;9.00;7.45;;;12.70;99.90;;;;;;7324904;32;20122;-62
2022/10/20 07:43:14;;;;;;;10.73;7.07;;;12.70;99.90;;;;;;7319380;32;20112;-63
2022/10/20 07:47:16;;;;;;;15.00;7.45;;;12.80;99.90;;;;;;7322925;32;20237;-61
2022/10/20 07:51:20;;;;;;;12.43;7.35;;;12.90;99.90;;;;;;7324670;32;20108;-61
2022/10/20 07:55:22;;;;;;;10.70;7.30;;;12.90;99.90;;;;;;7322871;32;20621;-62
2022/10/20 07:59:39;;;;;;;10.30;7.03;;;13.00;99.90;;;;;;7327558;32;20656;-60
2022/10/20 08:03:41;;;;;;;9.13;6.85;;;13.10;99.90;;;;;;7319207;32;20134;-62
2022/10/20 08:07:43;;;;;;;11.30;6.80;;;13.10;99.90;;;;;;7319945;32;20111;-62
2022/10/20 08:11:44;;;;;;;9.48;7.15;;;13.10;99.90;;;;;;7317423;32;20111;-62
2022/10/20 08:15:46;;;;;;;9.82;6.97;;;13.30;99.90;;;;;;7323841;32;20187;-62
2022/10/20 08:19:49;;;;;;;10.35;6.95;;;13.30;99.90;;;;;;7324166;32;20222;-62
2022/10/20 08:24:09;;;;;;;9.93;6.70;;;13.40;99.90;;;;;;7316916;32;20111;-64
2022/10/20 08:28:10;;;;;;;9.30;6.55;;;13.40;99.90;;;;;;7332251;32;20103;-61
2022/10/20 08:32:13;;;;;;;12.15;6.60;;;13.50;99.90;;;;;;7311723;32;20230;-61
2022/10/20 08:36:14;;;;;;;8.82;6.05;;;13.60;99.90;;;;;;7313167;32;20166;-61
2022/10/20 08:40:20;;;;;;;7.80;6.30;;;13.60;99.90;;;;;;7317216;32;20216;-62
2022/10/20 08:44:25;;;;;;;10.40;6.85;;;13.70;99.90;;;;;;7321261;32;20111;-61
2022/10/20 08:48:31;;;;;;;9.02;6.82;;;13.70;99.90;;;;;;7319363;32;20164;-61
2022/10/20 08:52:33;;;;;;;9.13;6.78;;;13.70;99.90;;;;;;7325386;32;20134;-62
2022/10/20 08:56:35;;;;;;;12.50;6.80;;;13.80;99.90;;;;;;7318219;32;20711;-63
2022/10/20 09:00:38;;;;;;;11.20;6.62;;;13.80;99.90;;;;;;7314458;32;20195;-60
2022/10/20 09:04:46;;;;;;;9.32;6.15;;;13.90;99.90;;;;;;7314180;32;20434;-60
2022/10/20 09:08:48;;;;;;;10.43;6.30;;;14.00;99.90;;;;;;7324356;32;20175;-61
2022/10/20 09:12:51;;;;;;;9.32;6.65;;;14.10;99.90;;;;;;7319993;32;20800;-61
2022/10/20 09:16:52;;;;;;;9.15;6.70;;;14.20;99.90;;;;;;7317885;32;20221;-61
2022/10/20 09:21:15;;;;;;;12.10;7.07;;;14.10;99.90;;;;;;7317141;32;20240;-62
2022/10/20 09:25:22;;;;;;;10.23;5.95;;;14.10;99.90;;;;;;7317036;32;20126;-61
2022/10/20 09:29:35;;;;;;;11.43;6.72;;;14.10;99.90;;;;;;7320373;32;20175;-62
2022/10/20 09:33:37;;;;;;;10.82;6.80;;;14.00;99.90;;;;;;7322927;32;20191;-62
2022/10/20 09:37:39;;;;;;;10.55;6.43;;;14.00;99.90;;;;;;7311910;32;20099;-62
2022/10/20 09:41:41;;;;;;;9.15;6.82;;;14.00;99.90;;;;;;7310651;32;20217;-62
2022/10/20 09:45:52;;;;;;;11.88;6.70;;;14.00;99.90;;;;;;7316894;32;20230;-64
2022/10/20 09:50:01;;;;;;;14.05;6.45;;;13.90;99.90;;;;;;7315067;32;20146;-62
2022/10/20 09:54:06;;;;;;;12.25;6.95;;;14.10;99.90;;;;;;7318624;32;20115;-61
2022/10/20 09:58:27;;;;;;;12.65;6.50;;;14.00;99.90;;;;;;7316728;32;20111;-62
2022/10/20 10:02:30;;;;;;;12.73;6.75;;;14.10;99.90;;;;;;7315007;32;20166;-60
2022/10/20 10:06:41;;;;;;;10.55;6.72;;;14.10;99.90;;;;;;7312650;32;20149;-62
2022/10/20 10:10:45;;;;;;;9.93;5.95;;;14.10;99.90;;;;;;7312047;32;20261;-61
2022/10/20 10:14:58;;;;;;;12.63;6.00;;;14.00;99.90;;;;;;7323167;32;20296;-61
2022/10/20 10:19:03;;;;;;;10.90;6.05;;;14.10;99.90;;;;;;7316799;32;20112;-60
2022/10/20 10:23:19;;;;;;;8.85;6.37;;;14.20;99.90;;;;;;7317874;32;20134;-63
2022/10/20 10:27:27;;;;;;;10.77;6.68;;;14.30;99.90;;;;;;7324168;32;20214;-62
2022/10/20 10:31:31;;;;;;;10.23;6.68;;;14.30;99.90;;;;;;7314932;32;20139;-62
2022/10/20 10:35:38;;;;;;;12.95;6.90;;;14.30;99.90;;;;;;7312921;32;20198;-61
2022/10/20 10:39:41;;;;;;;8.93;7.10;;;14.30;99.90;;;;;;7309162;32;20127;-60
2022/10/20 10:43:50;;;;;;;13.05;8.25;;;14.30;99.90;;;;;;7315781;32;20123;-61
2022/10/20 10:47:55;;;;;;;9.50;6.85;;;14.30;99.90;;;;;;7317104;32;20103;-61
2022/10/20 10:52:17;;;;;;;13.98;7.75;;;14.50;99.90;;;;;;7311835;32;20903;-61
2022/10/20 10:56:36;;;;;;;12.15;7.80;;;14.70;99.90;;;;;;7314675;32;20205;-60
2022/10/20 11:00:56;;;;;;;17.15;8.57;;;14.70;99.90;;;;;;7311794;32;20762;-60
2022/10/20 11:05:23;;;;;;;14.10;8.07;;;14.80;99.90;;;;;;7313722;32;20250;-62
2022/10/20 11:09:41;;;;;;;8.73;7.15;;;14.70;99.90;;;;;;7318263;32;20198;-63
2022/10/20 11:13:50;;;;;;;11.63;7.50;;;14.90;99.90;;;;;;7317609;32;20648;-61
2022/10/20 11:17:57;;;;;;;10.43;6.97;;;14.90;99.90;;;;;;7322717;32;20218;-62
2022/10/20 11:22:24;;;;;;;11.90;7.25;;;14.80;99.90;;;;;;7324303;32;20190;-61
2022/10/20 11:26:43;;;;;;;12.15;8.00;;;14.80;99.90;;;;;;7323378;32;20176;-61
2022/10/20 11:30:45;;;;;;;15.60;7.93;;;14.60;99.90;;;;;;7316550;32;20095;-63
2022/10/20 11:35:06;;;;;;;12.70;7.82;;;14.70;99.90;;;;;;7325781;32;20254;-62
2022/10/20 11:39:34;;;;;;;11.40;8.30;;;14.50;99.90;;;;;;7324616;32;20804;-61
2022/10/20 11:43:35;;;;;;;;;;;14.30;99.90;;;;;;7325046;32;20130;-62
2022/10/20 11:47:41;;;;;;;15.15;9.27;;;14.00;99.90;;;;;;7315510;32;20097;-62
2022/10/20 11:51:58;;;;;;;13.70;9.35;;;13.90;99.90;;;;;;7317446;32;20198;-62
2022/10/20 11:56:34;;;;;;;13.23;10.43;;;13.80;99.90;;;;;;7317855;32;20682;-61
2022/10/20 12:00:35;;;;;;;14.35;10.65;;;13.70;99.90;;;;;;7318383;32;20244;-62
2022/10/20 12:05:07;;;;;;;13.82;10.77;;;13.60;99.90;;;;;;7320781;32;20256;-61
2022/10/20 12:09:40;;;;;;;19.87;11.98;;;13.60;99.90;;;;;;7319436;32;20464;-62
2022/10/20 12:14:06;;;;;;;15.73;11.75;;;13.50;99.90;;;;;;7325472;32;20127;-63
2022/10/20 12:18:24;;;;;;;15.98;12.15;;;13.40;99.90;;;;;;7314109;32;20107;-65
2022/10/20 12:22:28;;;;;;;17.50;12.73;;;13.40;99.90;;;;;;7314457;32;20529;-63
2022/10/20 12:26:32;;;;;;;17.08;12.55;;;13.30;99.90;;;;;;7319433;32;20103;-61
2022/10/20 12:30:37;;;;;;;19.30;12.63;;;13.30;99.90;;;;;;7316938;32;20100;-61
2022/10/20 12:34:40;;;;;;;17.27;13.32;;;13.30;99.90;;;;;;7322302;32;20530;-62
2022/10/20 12:38:53;;;;;;;17.75;13.18;;;13.20;99.90;;;;;;7315436;32;20186;-62
2022/10/20 12:42:55;;;;;;;15.93;12.85;;;13.10;99.90;;;;;;7313573;32;20696;-62
2022/10/20 12:47:05;;;;;;;24.30;14.87;;;13.20;99.90;;;;;;7314207;32;20214;-63
2022/10/20 12:51:16;;;;;;;19.50;14.13;;;13.20;99.90;;;;;;7321111;32;20099;-62
2022/10/20 12:55:29;;;;;;;19.37;14.40;;;13.30;99.90;;;;;;7319109;32;20248;-62
2022/10/20 12:59:37;;;;;;;19.65;14.07;;;13.50;99.90;;;;;;7312451;32;20223;-63
2022/10/20 13:03:45;;;;;;;15.77;12.52;;;13.70;99.90;;;;;;7312319;32;20919;-61
2022/10/20 13:07:47;;;;;;;20.80;12.60;;;13.90;99.90;;;;;;7316270;32;20326;-61
2022/10/20 13:11:57;;;;;;;16.27;12.55;;;14.00;99.90;;;;;;7311180;32;20766;-61
2022/10/20 13:16:00;;;;;;;15.27;13.13;;;14.00;99.90;;;;;;7321006;32;20538;-61
2022/10/20 13:20:35;;;;;;;18.73;12.43;;;14.00;99.90;;;;;;7314053;32;20103;-62
2022/10/20 13:24:37;;;;;;;17.75;13.10;;;14.10;99.90;;;;;;7313070;32;20196;-64
2022/10/20 13:28:54;;;;;;;13.82;12.35;;;14.10;99.90;;;;;;7322505;32;21339;-64
2022/10/20 13:33:00;;;;;;;15.07;12.40;;;14.20;99.90;;;;;;7310287;32;20100;-63
2022/10/20 13:37:30;;;;;;;22.00;11.98;;;14.40;99.90;;;;;;7315261;32;20103;-61
2022/10/20 13:41:50;;;;;;;17.35;12.50;;;14.50;99.90;;;;;;7322512;32;20186;-62
2022/10/20 13:45:55;;;;;;;14.00;11.05;;;14.60;99.90;;;;;;7312462;32;20222;-62
2022/10/20 13:50:26;;;;;;;16.58;12.23;;;14.60;99.90;;;;;;7313025;32;20214;-62
2022/10/20 13:54:32;;;;;;;16.65;11.65;;;14.70;99.90;;;;;;7315315;32;20214;-61
2022/10/20 13:58:34;;;;;;;18.15;12.35;;;14.80;99.90;;;;;;7312004;32;20837;-62
2022/10/20 14:02:36;;;;;;;16.20;11.38;;;15.00;99.90;;;;;;7315582;32;20614;-63
2022/10/20 14:06:38;;;;;;;18.42;11.43;;;15.10;99.90;;;;;;7311089;32;20789;-61
2022/10/20 14:10:49;;;;;;;15.20;10.77;;;15.40;99.90;;;;;;7310793;32;20449;-62
2022/10/20 14:14:54;;;;;;;14.40;9.80;;;15.50;99.90;;;;;;7315360;32;20112;-62
2022/10/20 14:19:10;;;;;;;13.68;9.38;;;15.60;99.90;;;;;;7313468;32;20100;-62
2022/10/20 14:23:12;;;;;;;13.50;9.77;;;15.50;99.90;;;;;;7316318;32;20108;-62
2022/10/20 14:27:20;;;;;;;15.65;10.20;;;15.50;99.90;;;;;;7320858;32;20126;-61
2022/10/20 14:31:23;;;;;;;12.60;9.90;;;15.30;99.90;;;;;;7318105;32;20124;-62
2022/10/20 14:35:41;;;;;;;15.02;10.02;;;15.30;99.90;;;;;;7320951;32;20206;-62
2022/10/20 14:39:48;;;;;;;15.18;8.93;;;15.20;99.90;;;;;;7305837;32;20155;-62
2022/10/20 14:43:59;;;;;;;15.50;9.82;;;15.20;99.90;;;;;;7323797;32;20478;-61
2022/10/20 14:48:15;;;;;;;13.60;9.25;;;15.10;99.90;;;;;;7318328;32;20637;-62
2022/10/20 14:52:16;;;;;;;12.52;9.88;;;15.10;99.90;;;;;;7312182;32;20096;-61
2022/10/20 14:56:24;;;;;;;13.23;9.27;;;15.00;99.90;;;;;;7317940;32;20186;-63
2022/10/20 15:00:35;;;;;;;18.45;10.60;;;15.00;99.90;;;;;;7309011;32;20128;-61
2022/10/20 15:04:42;;;;;;;15.65;9.90;;;15.00;99.90;;;;;;7306245;32;20128;-61
2022/10/20 15:08:56;;;;;;;14.48;9.27;;;14.90;99.90;;;;;;7314988;32;20713;-62
2022/10/20 15:12:58;;;;;;;13.77;9.93;;;14.90;99.90;;;;;;7313462;32;20195;-61
2022/10/20 15:17:00;;;;;;;17.55;9.70;;;14.90;99.90;;;;;;7314674;32;20095;-63
2022/10/20 15:21:02;;;;;;;15.75;9.73;;;15.00;99.90;;;;;;7304844;32;20104;-61
2022/10/20 15:25:04;;;;;;;14.95;10.10;;;14.80;99.90;;;;;;7316136;32;20558;-61
2022/10/20 15:29:06;;;;;;;13.80;10.05;;;14.60;99.90;;;;;;7308708;32;21236;-61
2022/10/20 15:33:08;;;;;;;19.70;10.70;;;14.50;99.90;;;;;;7307226;32;20774;-62
2022/10/20 15:37:10;;;;;;;13.48;9.98;;;14.50;99.90;;;;;;7307913;32;20257;-62
2022/10/20 15:41:24;;;;;;;16.67;9.93;;;14.60;99.90;;;;;;7312242;32;20524;-62
2022/10/20 15:45:29;;;;;;;14.77;10.07;;;14.50;99.90;;;;;;7312162;32;20457;-62
2022/10/20 15:49:31;;;;;;;14.50;10.70;;;14.40;99.90;;;;;;7311538;32;20483;-62
2022/10/20 15:53:33;;;;;;;15.18;10.13;;;14.40;99.90;;;;;;7315652;32;20099;-61
2022/10/20 15:57:34;;;;;;;13.93;11.00;;;14.30;99.90;;;;;;7315757;32;20284;-63
2022/10/20 16:01:37;;;;;;;15.32;10.27;;;14.20;99.90;;;;;;7315432;32;20181;-61
2022/10/20 16:05:39;;;;;;;14.18;10.23;;;14.10;99.90;;;;;;7323402;32;20198;-63
2022/10/20 16:09:40;;;;;;;19.50;11.07;;;14.00;99.90;;;;;;7316569;32;20414;-61
2022/10/20 16:13:42;;;;;;;14.87;10.77;;;14.10;99.90;;;;;;7321552;32;20135;-61
2022/10/20 16:17:45;;;;;;;18.60;11.12;;;14.00;99.90;;;;;;7320827;32;20118;-63
2022/10/20 16:21:47;;;;;;;19.17;12.93;;;13.90;99.90;;;;;;7317789;32;20130;-62
2022/10/20 16:25:48;;;;;;;18.35;12.63;;;13.80;99.90;;;;;;7318102;32;20631;-62
2022/10/20 16:29:50;;;;;;;18.80;11.90;;;13.80;99.90;;;;;;7314738;32;20520;-61
2022/10/20 16:33:52;;;;;;;20.92;12.13;;;13.80;99.90;;;;;;7304682;32;20130;-65
2022/10/20 16:37:53;;;;;;;18.30;11.82;;;13.70;99.90;;;;;;7320414;32;20186;-64
2022/10/20 16:41:55;;;;;;;16.75;11.93;;;13.70;99.90;;;;;;7316914;32;20815;-61
2022/10/20 16:45:57;;;;;;;19.52;11.27;;;13.70;99.90;;;;;;7320017;32;20104;-61
2022/10/20 16:49:58;;;;;;;20.45;11.77;;;13.70;99.90;;;;;;7314486;32;20784;-61
2022/10/20 16:54:00;;;;;;;20.55;14.40;;;13.80;99.90;;;;;;7322410;32;20119;-62
2022/10/20 16:58:04;;;;;;;17.33;12.80;;;13.60;99.90;;;;;;7317026;32;20209;-60
2022/10/20 17:02:06;;;;;;;19.80;11.80;;;13.60;99.90;;;;;;7315651;32;22514;-59
2022/10/20 17:06:09;;;;;;;16.37;11.60;;;13.60;99.90;;;;;;7312199;32;20103;-58
2022/10/20 17:10:10;;;;;;;17.77;13.60;;;13.60;99.90;;;;;;7314652;32;20110;-58
2022/10/20 17:14:12;;;;;;;18.48;12.98;;;13.60;99.90;;;;;;7315516;32;20576;-59
2022/10/20 17:18:14;;;;;;;18.27;12.18;;;13.60;99.90;;;;;;7316317;32;20116;-59
2022/10/20 17:22:16;;;;;;;16.52;12.10;;;13.60;99.90;;;;;;7312721;32;20218;-59
2022/10/20 17:26:21;;;;;;;19.95;12.45;;;13.60;99.90;;;;;;7318059;32;20537;-61
2022/10/20 17:30:22;;;;;;;20.15;12.20;;;13.60;99.90;;;;;;7313436;32;20108;-63
2022/10/20 17:34:24;;;;;;;21.33;13.13;;;13.60;99.90;;;;;;7318674;32;20179;-61
2022/10/20 17:38:28;;;;;;;17.90;12.50;;;13.60;99.90;;;;;;7317761;32;20637;-62
2022/10/20 17:42:31;;;;;;;17.20;11.73;;;13.60;99.90;;;;;;7317670;32;20228;-61
2022/10/20 17:46:33;;;;;;;18.87;11.57;;;13.70;99.90;;;;;;7315467;32;20184;-59
2022/10/20 17:50:35;;;;;;;17.02;11.48;;;13.60;99.90;;;;;;7313404;32;20212;-59
2022/10/20 17:54:37;;;;;;;14.95;11.65;;;13.70;99.90;;;;;;7316050;32;20103;-59
2022/10/20 17:58:42;;;;;;;13.43;11.40;;;13.70;99.90;;;;;;7320720;32;20225;-59
2022/10/20 18:02:49;;;;;;;20.88;12.40;;;13.60;99.90;;;;;;7315420;32;20824;-60
2022/10/20 18:06:50;;;;;;;21.47;12.87;;;13.60;99.90;;;;;;7313574;32;20124;-59
2022/10/20 18:10:52;;;;;;;22.25;12.30;;;13.70;99.90;;;;;;7313560;32;20245;-59
2022/10/20 18:14:54;;;;;;;18.00;11.55;;;13.70;99.90;;;;;;7317859;32;20120;-60
2022/10/20 18:18:57;;;;;;;21.08;12.60;;;13.60;99.90;;;;;;7313515;32;20115;-60
2022/10/20 18:23:03;;;;;;;16.45;11.32;;;13.60;99.90;;;;;;7313945;32;20099;-59
2022/10/20 18:27:05;;;;;;;18.42;11.63;;;13.70;99.90;;;;;;7315607;32;20123;-60
2022/10/20 18:31:13;;;;;;;20.12;13.07;;;13.60;99.90;;;;;;7314353;32;20118;-59
2022/10/20 18:35:15;;;;;;;16.55;12.00;;;13.80;99.90;;;;;;7314607;32;20516;-60
2022/10/20 18:39:17;;;;;;;17.15;11.88;;;13.80;99.90;;;;;;7318957;32;20108;-61
2022/10/20 18:43:18;;;;;;;14.18;11.43;;;13.80;99.90;;;;;;7316586;32;20401;-61
2022/10/20 18:47:20;;;;;;;15.82;10.80;;;13.80;99.90;;;;;;7312995;32;20504;-59
2022/10/20 18:51:22;;;;;;;17.27;11.27;;;13.90;99.90;;;;;;7313073;32;20126;-60
2022/10/20 18:55:24;;;;;;;18.80;13.65;;;13.80;99.90;;;;;;7315756;32;20747;-59
2022/10/20 18:59:26;;;;;;;16.23;10.98;;;13.80;99.90;;;;;;7312589;32;20127;-59
2022/10/20 19:03:30;;;;;;;17.95;12.75;;;13.90;99.90;;;;;;7314742;32;20127;-61
2022/10/20 19:07:32;;;;;;;15.68;11.43;;;13.90;99.90;;;;;;7316516;32;20100;-61
2022/10/20 19:11:36;;;;;;;17.37;10.70;;;13.90;99.90;;;;;;7322596;32;20574;-62
2022/10/20 19:15:39;;;;;;;15.73;10.55;;;13.90;99.90;;;;;;7309951;32;20126;-60
2022/10/20 19:19:42;;;;;;;19.80;11.23;;;13.90;99.90;;;;;;7310324;32;20130;-60
2022/10/20 19:23:48;;;;;;;18.67;11.55;;;13.90;99.90;;;;;;7311041;32;20096;-60
2022/10/20 19:27:50;;;;;;;16.52;11.27;;;13.80;99.90;;;;;;7314408;32;20100;-60
2022/10/20 19:31:54;;;;;;;14.73;10.57;;;13.80;99.90;;;;;;7314661;32;20123;-62
2022/10/20 19:35:56;;;;;;;18.17;11.45;;;13.80;99.90;;;;;;7319311;32;20780;-60
2022/10/20 19:39:58;;;;;;;16.58;10.98;;;13.80;99.90;;;;;;7317454;32;20206;-61
2022/10/20 19:44:01;;;;;;;13.73;10.20;;;13.70;99.90;;;;;;7315159;32;20473;-59
2022/10/20 19:48:03;;;;;;;15.13;10.52;;;13.70;99.90;;;;;;7319127;32;20096;-60
2022/10/20 19:52:06;;;;;;;12.80;9.82;;;13.70;99.90;;;;;;7318756;32;20133;-62
2022/10/20 19:56:08;;;;;;;13.98;11.32;;;13.60;99.90;;;;;;7314833;32;20137;-60
2022/10/20 20:00:10;;;;;;;15.93;10.30;;;13.60;99.90;;;;;;7316849;32;20657;-62
2022/10/20 20:04:12;;;;;;;14.82;10.23;;;13.60;99.90;;;;;;7319277;32;20479;-60
2022/10/20 20:08:13;;;;;;;14.75;10.20;;;13.60;99.90;;;;;;7314719;32;20125;-61
2022/10/20 20:12:15;;;;;;;14.65;10.75;;;13.60;99.90;;;;;;7319252;32;20256;-62
2022/10/20 20:16:17;;;;;;;13.80;10.73;;;13.60;99.90;;;;;;7314897;32;20113;-61
2022/10/20 20:20:19;;;;;;;13.10;10.15;;;13.50;99.90;;;;;;7318039;32;20195;-61
2022/10/20 20:24:21;;;;;;;16.27;10.02;;;13.60;99.90;;;;;;7317724;32;20301;-62
2022/10/20 20:28:22;;;;;;;14.55;10.27;;;13.50;99.90;;;;;;7311144;32;20118;-60
2022/10/20 20:32:25;;;;;;;14.90;10.45;;;13.50;99.90;;;;;;7315766;32;20339;-60
2022/10/20 20:36:27;;;;;;;14.95;9.68;;;13.50;99.90;;;;;;7316809;32;20422;-62
2022/10/20 20:40:29;;;;;;;14.20;9.98;;;13.50;99.90;;;;;;7320383;32;20611;-61
2022/10/20 20:44:30;;;;;;;15.13;10.18;;;13.60;99.90;;;;;;7317256;32;20244;-60
2022/10/20 20:48:34;;;;;;;13.75;10.38;;;13.50;99.90;;;;;;7315719;32;20134;-61
2022/10/20 20:52:36;;;;;;;14.75;10.02;;;13.50;99.90;;;;;;7313259;32;20211;-60
2022/10/20 20:56:38;;;;;;;15.48;11.18;;;13.50;99.90;;;;;;7318764;32;20100;-61
2022/10/20 21:00:39;;;;;;;16.52;10.70;;;13.50;99.90;;;;;;7320969;32;20217;-59